Allendale, Michigan
Current Conditions -  °F | °C
As of 9:53 AM on Monday 24 Nov 2014 (Local Time) from KBIV Reporting Station
Haze Haze  
Wind Chill: 50°   Ceiling: 400
Heat Index: 50°   Visibility: 3mi
Dew Point: 48°   Wind: 10mph
Humidity: 93%   Direction: 240°WSW
Pressure: 29.06"   Gusts: NA
Location:  42.97°N, 85.95°W
Report Text: KBIV 241453Z AUTO 24009KT 3SM BR OVC004 10/09 A2906 RMK AO2 RAE29 SLP822 P0002 60006 T01000089 58002
Loading
Personal Weather Stations






























Interactive Weather Map New forecast layout! Learn more

10-Day Weather Forecast

Advertisements
Track Severe Weather on mobile